Accueil
METAR-TAF:

METAR-TAF

Aéroports :

Schwäbisch Hall, Allemagne

latitude: 49-07-06N, longitude: 9-47-02E, altitude: 398 m

Observation

Le bulletin a été fait il y a 42 minutes, à 13:50 UTC
Vent 5 kt de est/nord-est, variant entre nord-est et est
Température -1°C
Humidité 86%
Pression 1033 hPa
Visibilité: 6000 m
Nuages épars à une hauteur de 800 ft

METAR: EDTY 221350Z 07005KT 040V100 6000 SCT008 M01/M03 Q1033

Heure: 15:32 (14:32 UTC)

Prévision

Le bulletin a été fait il y a 3 heures et 32 minutes, à 11:00 UTC
Prévision valable du 22 à 12 UTC au 22 à 21 UTC
Vent 3 kt de direction variable
Visibilité: 6000 m
Nuages fragmentés à une hauteur de 700 ft
Temporairement
du 22 à 12 UTC au 22 à 16 UTC
Nuages épars à une hauteur de 800 ft

TAF: EDTY 221100Z 2212/2221 VRB03KT 6000 BKN007 TEMPO 2212/2216 SCT008

Observations et prévisions météorologiques de plus de 4000 aéroports (messages METAR et TAF).

Les stations disponibles sont représentées par des disques jaunes et rouges sur la carte.

Passer la souris dessus pour voir le nom de la station.

Cliquer dessus pour voir les observations et prévisions météorologiques.

Pour changer de carte: cliquez sur les boutons verts avec une croix noire pour zoomer, sur le bouton vert avec un tiret pour effectuer un zoom arrière, ou sur les flèches vertes pour les cartes adjacentes.


METAR-TAF: